sensor_id;sensor_type;location;lat;lon;timestamp;temperature;humidity
44731;DHT22;30458;47.448;19.032;2023-02-28T00:00:32;4.70;77.80
44731;DHT22;30458;47.448;19.032;2023-02-28T00:10:35;4.80;77.80
44731;DHT22;30458;47.448;19.032;2023-02-28T00:20:36;4.80;78.00
44731;DHT22;30458;47.448;19.032;2023-02-28T00:30:37;4.80;78.70
44731;DHT22;30458;47.448;19.032;2023-02-28T00:40:39;4.90;79.10
44731;DHT22;30458;47.448;19.032;2023-02-28T00:50:39;4.90;79.50
44731;DHT22;30458;47.448;19.032;2023-02-28T01:00:42;4.80;80.00
44731;DHT22;30458;47.448;19.032;2023-02-28T01:10:45;4.80;80.40
44731;DHT22;30458;47.448;19.032;2023-02-28T01:20:46;5.00;81.00
44731;DHT22;30458;47.448;19.032;2023-02-28T01:30:50;5.10;81.80
44731;DHT22;30458;47.448;19.032;2023-02-28T01:40:51;5.20;81.60
44731;DHT22;30458;47.448;19.032;2023-02-28T01:50:53;5.20;81.40
44731;DHT22;30458;47.448;19.032;2023-02-28T02:00:55;5.20;80.80
44731;DHT22;30458;47.448;19.032;2023-02-28T02:11:03;4.90;78.80
44731;DHT22;30458;47.448;19.032;2023-02-28T02:21:26;4.90;79.00
44731;DHT22;30458;47.448;19.032;2023-02-28T02:42:00;4.30;80.90
44731;DHT22;30458;47.448;19.032;2023-02-28T02:52:08;4.30;81.80
44731;DHT22;30458;47.448;19.032;2023-02-28T03:02:12;4.30;79.60
44731;DHT22;30458;47.448;19.032;2023-02-28T03:12:15;4.40;79.40
44731;DHT22;30458;47.448;19.032;2023-02-28T03:23:01;4.30;79.10
44731;DHT22;30458;47.448;19.032;2023-02-28T03:33:11;4.40;79.40
44731;DHT22;30458;47.448;19.032;2023-02-28T03:43:20;4.50;79.40
44731;DHT22;30458;47.448;19.032;2023-02-28T03:53:35;4.40;79.30
44731;DHT22;30458;47.448;19.032;2023-02-28T04:03:38;4.30;80.40
44731;DHT22;30458;47.448;19.032;2023-02-28T04:13:39;4.30;79.50
44731;DHT22;30458;47.448;19.032;2023-02-28T04:23:42;4.20;79.70
44731;DHT22;30458;47.448;19.032;2023-02-28T04:33:45;4.20;79.70
44731;DHT22;30458;47.448;19.032;2023-02-28T04:43:46;4.30;79.80
44731;DHT22;30458;47.448;19.032;2023-02-28T04:53:47;4.40;79.80
44731;DHT22;30458;47.448;19.032;2023-02-28T05:03:55;4.50;80.00
44731;DHT22;30458;47.448;19.032;2023-02-28T05:13:58;4.60;80.10
44731;DHT22;30458;47.448;19.032;2023-02-28T05:24:04;4.70;79.90
44731;DHT22;30458;47.448;19.032;2023-02-28T05:34:06;4.70;79.60
44731;DHT22;30458;47.448;19.032;2023-02-28T05:44:15;4.80;79.50
44731;DHT22;30458;47.448;19.032;2023-02-28T05:54:16;4.70;79.30
44731;DHT22;30458;47.448;19.032;2023-02-28T06:04:18;4.70;79.70
44731;DHT22;30458;47.448;19.032;2023-02-28T06:14:20;4.80;80.80
44731;DHT22;30458;47.448;19.032;2023-02-28T06:24:24;4.80;80.80
44731;DHT22;30458;47.448;19.032;2023-02-28T06:34:28;4.60;80.50
44731;DHT22;30458;47.448;19.032;2023-02-28T06:44:32;4.60;80.90
44731;DHT22;30458;47.448;19.032;2023-02-28T06:54:36;4.60;80.70
44731;DHT22;30458;47.448;19.032;2023-02-28T07:04:40;4.70;80.50
44731;DHT22;30458;47.448;19.032;2023-02-28T07:14:43;5.00;80.50
44731;DHT22;30458;47.448;19.032;2023-02-28T07:24:44;5.50;79.90
44731;DHT22;30458;47.448;19.032;2023-02-28T07:34:45;5.70;78.10
44731;DHT22;30458;47.448;19.032;2023-02-28T07:44:48;6.80;76.70
44731;DHT22;30458;47.448;19.032;2023-02-28T07:54:54;7.90;74.30
44731;DHT22;30458;47.448;19.032;2023-02-28T08:04:55;7.70;73.00
44731;DHT22;30458;47.448;19.032;2023-02-28T08:14:56;7.20;73.50
44731;DHT22;30458;47.448;19.032;2023-02-28T08:24:57;7.90;72.50
44731;DHT22;30458;47.448;19.032;2023-02-28T08:34:57;9.50;69.80
44731;DHT22;30458;47.448;19.032;2023-02-28T08:44:58;10.20;67.90
44731;DHT22;30458;47.448;19.032;2023-02-28T08:54:59;12.10;65.50
44731;DHT22;30458;47.448;19.032;2023-02-28T09:05:00;13.20;61.00
44731;DHT22;30458;47.448;19.032;2023-02-28T09:15:03;11.40;62.90
44731;DHT22;30458;47.448;19.032;2023-02-28T09:25:04;10.40;64.90
44731;DHT22;30458;47.448;19.032;2023-02-28T09:35:06;9.20;67.50
44731;DHT22;30458;47.448;19.032;2023-02-28T10:05:39;7.60;71.80
44731;DHT22;30458;47.448;19.032;2023-02-28T10:15:41;7.80;72.20
44731;DHT22;30458;47.448;19.032;2023-02-28T10:25:51;8.00;72.40
44731;DHT22;30458;47.448;19.032;2023-02-28T10:35:54;8.10;72.60
44731;DHT22;30458;47.448;19.032;2023-02-28T10:46:05;8.20;72.70
44731;DHT22;30458;47.448;19.032;2023-02-28T10:56:14;8.40;72.10
44731;DHT22;30458;47.448;19.032;2023-02-28T11:16:17;8.20;73.30
44731;DHT22;30458;47.448;19.032;2023-02-28T11:26:36;8.20;73.30
44731;DHT22;30458;47.448;19.032;2023-02-28T11:36:37;8.10;74.00
44731;DHT22;30458;47.448;19.032;2023-02-28T11:46:50;8.00;74.70
44731;DHT22;30458;47.448;19.032;2023-02-28T11:56:55;8.10;74.60
44731;DHT22;30458;47.448;19.032;2023-02-28T12:27:21;8.20;74.70
44731;DHT22;30458;47.448;19.032;2023-02-28T12:47:44;8.20;75.80
44731;DHT22;30458;47.448;19.032;2023-02-28T12:58:05;8.10;76.10
44731;DHT22;30458;47.448;19.032;2023-02-28T13:18:42;8.30;76.30
44731;DHT22;30458;47.448;19.032;2023-02-28T13:49:36;8.40;77.00
44731;DHT22;30458;47.448;19.032;2023-02-28T14:09:51;8.30;77.90
44731;DHT22;30458;47.448;19.032;2023-02-28T14:19:55;8.30;77.70
44731;DHT22;30458;47.448;19.032;2023-02-28T14:40:39;8.30;78.50
44731;DHT22;30458;47.448;19.032;2023-02-28T14:50:51;8.30;78.40
44731;DHT22;30458;47.448;19.032;2023-02-28T15:00:56;8.20;78.60
44731;DHT22;30458;47.448;19.032;2023-02-28T15:11:03;8.20;79.00
44731;DHT22;30458;47.448;19.032;2023-02-28T15:21:11;8.20;79.50
44731;DHT22;30458;47.448;19.032;2023-02-28T15:31:27;8.10;79.50
44731;DHT22;30458;47.448;19.032;2023-02-28T15:41:40;7.90;80.40
44731;DHT22;30458;47.448;19.032;2023-02-28T15:51:41;7.70;82.10
44731;DHT22;30458;47.448;19.032;2023-02-28T16:01:44;7.40;82.90
44731;DHT22;30458;47.448;19.032;2023-02-28T16:11:50;7.40;83.50
44731;DHT22;30458;47.448;19.032;2023-02-28T16:21:54;7.50;83.60
44731;DHT22;30458;47.448;19.032;2023-02-28T16:31:55;7.30;83.90
44731;DHT22;30458;47.448;19.032;2023-02-28T16:41:58;7.10;85.00
44731;DHT22;30458;47.448;19.032;2023-02-28T16:51:59;7.10;85.70
44731;DHT22;30458;47.448;19.032;2023-02-28T17:02:00;7.10;86.20
44731;DHT22;30458;47.448;19.032;2023-02-28T17:12:01;7.20;86.80
44731;DHT22;30458;47.448;19.032;2023-02-28T17:22:02;7.20;87.60
44731;DHT22;30458;47.448;19.032;2023-02-28T17:32:03;7.20;87.90
44731;DHT22;30458;47.448;19.032;2023-02-28T17:42:06;7.00;88.80
44731;DHT22;30458;47.448;19.032;2023-02-28T17:52:08;6.90;89.30
44731;DHT22;30458;47.448;19.032;2023-02-28T18:02:12;7.00;89.20
44731;DHT22;30458;47.448;19.032;2023-02-28T18:12:16;7.00;89.90
44731;DHT22;30458;47.448;19.032;2023-02-28T18:22:17;7.10;90.10
44731;DHT22;30458;47.448;19.032;2023-02-28T18:32:20;6.80;90.40
44731;DHT22;30458;47.448;19.032;2023-02-28T18:42:23;6.80;90.30
44731;DHT22;30458;47.448;19.032;2023-02-28T18:52:24;6.80;90.40
44731;DHT22;30458;47.448;19.032;2023-02-28T19:02:29;6.80;90.70
44731;DHT22;30458;47.448;19.032;2023-02-28T19:12:35;6.40;91.60
44731;DHT22;30458;47.448;19.032;2023-02-28T19:22:36;6.40;91.80
44731;DHT22;30458;47.448;19.032;2023-02-28T19:32:36;6.70;91.30
44731;DHT22;30458;47.448;19.032;2023-02-28T19:42:37;7.00;90.80
44731;DHT22;30458;47.448;19.032;2023-02-28T19:52:38;7.10;90.80
44731;DHT22;30458;47.448;19.032;2023-02-28T20:02:40;7.20;90.70
44731;DHT22;30458;47.448;19.032;2023-02-28T20:12:41;7.30;90.50
44731;DHT22;30458;47.448;19.032;2023-02-28T20:22:44;7.30;90.40
44731;DHT22;30458;47.448;19.032;2023-02-28T20:32:47;7.40;90.40
44731;DHT22;30458;47.448;19.032;2023-02-28T20:42:48;7.30;90.50
44731;DHT22;30458;47.448;19.032;2023-02-28T20:52:51;7.40;90.60
44731;DHT22;30458;47.448;19.032;2023-02-28T21:02:52;7.50;90.60
44731;DHT22;30458;47.448;19.032;2023-02-28T21:12:55;7.50;90.60
44731;DHT22;30458;47.448;19.032;2023-02-28T21:22:57;7.50;90.40
44731;DHT22;30458;47.448;19.032;2023-02-28T21:32:58;7.40;90.60
44731;DHT22;30458;47.448;19.032;2023-02-28T21:42:59;7.30;90.70
44731;DHT22;30458;47.448;19.032;2023-02-28T21:53:00;7.20;91.10
44731;DHT22;30458;47.448;19.032;2023-02-28T22:03:00;7.30;91.00
44731;DHT22;30458;47.448;19.032;2023-02-28T22:13:04;7.50;90.90
44731;DHT22;30458;47.448;19.032;2023-02-28T22:23:12;7.50;90.70
44731;DHT22;30458;47.448;19.032;2023-02-28T22:33:13;7.50;90.60
44731;DHT22;30458;47.448;19.032;2023-02-28T22:43:16;7.50;90.60
44731;DHT22;30458;47.448;19.032;2023-02-28T22:53:17;7.50;90.60
44731;DHT22;30458;47.448;19.032;2023-02-28T23:03:18;7.50;90.50
44731;DHT22;30458;47.448;19.032;2023-02-28T23:13:20;7.40;90.70
44731;DHT22;30458;47.448;19.032;2023-02-28T23:23:20;7.40;90.90
44731;DHT22;30458;47.448;19.032;2023-02-28T23:33:21;7.30;91.00
44731;DHT22;30458;47.448;19.032;2023-02-28T23:43:27;7.40;91.20
44731;DHT22;30458;47.448;19.032;2023-02-28T23:53:30;7.40;91.00
